To NAV CANADA Home Page Login to a new session Search on AWWS site Feedback and Comments Disclaimer Vers la page française équivalente Tips FAQ What's new on the site To the Forecasts and Observations / NOTAM section To "File a Flight Plan" website Publications and other links Update of the User's profile FIC Telephone Numbers My Weather Data Folder Route Weather Data Regional Weather Data Local Weather Data To the Forecasts and Observations / NOTAM section
Request Generated 01/17/2017 at 04:57:42 UTC . Weather information available at that time is displayed.

METAR/TAF

GRANDE PRAIRIE/AB    

METAR CYQU 170400Z VRB02KT 25SM SCT070 OVC140 02/M00 A2929 RMK AC3AC5
SLP946=
METAR CYQU 170300Z 00000KT 25SM BKN070 OVC160 03/M01 A2932 RMK AC5AC3
SLP956=
METAR CYQU 170200Z 00000KT 25SM BKN070 OVC120 03/M00 A2935 RMK AC6AC2
SLP966=

TAF CYQU 170038Z 1701/1713 20010KT P6SM SCT060 BKN150
RMK NXT FCST BY 170700Z=
Your time UTC time
Weather data provided by Environment Canada and NAV CANADA